sensor_id;sensor_type;location;lat;lon;timestamp;P1;durP1;ratioP1;P2;durP2;ratioP2
34673;SDS011;20879;55.668;37.858;2023-09-18T00:01:34;19.08;;;12.10;;
34673;SDS011;20879;55.668;37.858;2023-09-18T00:06:41;18.58;;;12.77;;
34673;SDS011;20879;55.668;37.858;2023-09-18T00:09:18;17.63;;;12.77;;
34673;SDS011;20879;55.668;37.858;2023-09-18T00:11:57;19.08;;;12.95;;
34673;SDS011;20879;55.668;37.858;2023-09-18T00:14:29;17.85;;;11.80;;
34673;SDS011;20879;55.668;37.858;2023-09-18T00:17:01;18.73;;;12.35;;
34673;SDS011;20879;55.668;37.858;2023-09-18T00:19:33;15.65;;;10.88;;
34673;SDS011;20879;55.668;37.858;2023-09-18T00:24:42;17.35;;;11.85;;
34673;SDS011;20879;55.668;37.858;2023-09-18T00:29:48;18.25;;;10.70;;
34673;SDS011;20879;55.668;37.858;2023-09-18T00:32:20;19.67;;;11.20;;
34673;SDS011;20879;55.668;37.858;2023-09-18T00:34:50;17.67;;;10.57;;
34673;SDS011;20879;55.668;37.858;2023-09-18T00:37:23;17.02;;;10.30;;
34673;SDS011;20879;55.668;37.858;2023-09-18T00:40:03;14.88;;;10.32;;
34673;SDS011;20879;55.668;37.858;2023-09-18T00:42:34;14.13;;;10.13;;
34673;SDS011;20879;55.668;37.858;2023-09-18T00:45:13;15.07;;;10.00;;
34673;SDS011;20879;55.668;37.858;2023-09-18T00:47:44;15.43;;;9.13;;
34673;SDS011;20879;55.668;37.858;2023-09-18T00:50:20;16.05;;;9.60;;
34673;SDS011;20879;55.668;37.858;2023-09-18T00:52:53;14.13;;;9.73;;
34673;SDS011;20879;55.668;37.858;2023-09-18T00:55:35;16.42;;;9.45;;
34673;SDS011;20879;55.668;37.858;2023-09-18T00:58:08;15.32;;;10.18;;
34673;SDS011;20879;55.668;37.858;2023-09-18T01:00:39;16.10;;;9.60;;
34673;SDS011;20879;55.668;37.858;2023-09-18T01:03:12;16.02;;;9.85;;
34673;SDS011;20879;55.668;37.858;2023-09-18T01:05:51;16.80;;;9.52;;
34673;SDS011;20879;55.668;37.858;2023-09-18T01:08:27;15.45;;;9.82;;
34673;SDS011;20879;55.668;37.858;2023-09-18T01:11:04;14.35;;;9.65;;
34673;SDS011;20879;55.668;37.858;2023-09-18T01:13:44;14.30;;;10.02;;
34673;SDS011;20879;55.668;37.858;2023-09-18T01:16:24;15.90;;;9.75;;
34673;SDS011;20879;55.668;37.858;2023-09-18T01:18:56;14.38;;;9.77;;
34673;SDS011;20879;55.668;37.858;2023-09-18T01:21:31;15.88;;;9.63;;
34673;SDS011;20879;55.668;37.858;2023-09-18T01:24:03;14.55;;;9.88;;
34673;SDS011;20879;55.668;37.858;2023-09-18T01:26:42;14.40;;;9.43;;
34673;SDS011;20879;55.668;37.858;2023-09-18T01:29:16;13.20;;;9.25;;
34673;SDS011;20879;55.668;37.858;2023-09-18T01:31:50;13.73;;;9.00;;
34673;SDS011;20879;55.668;37.858;2023-09-18T01:34:19;14.73;;;9.00;;
34673;SDS011;20879;55.668;37.858;2023-09-18T01:37:00;18.15;;;9.27;;
34673;SDS011;20879;55.668;37.858;2023-09-18T01:39:34;14.88;;;7.47;;
34673;SDS011;20879;55.668;37.858;2023-09-18T01:42:05;15.15;;;8.73;;
34673;SDS011;20879;55.668;37.858;2023-09-18T01:44:45;12.45;;;8.05;;
34673;SDS011;20879;55.668;37.858;2023-09-18T01:47:32;13.65;;;8.80;;
34673;SDS011;20879;55.668;37.858;2023-09-18T01:50:10;13.88;;;9.00;;
34673;SDS011;20879;55.668;37.858;2023-09-18T01:52:44;12.40;;;8.50;;
34673;SDS011;20879;55.668;37.858;2023-09-18T01:55:20;13.48;;;8.35;;
34673;SDS011;20879;55.668;37.858;2023-09-18T01:57:56;12.30;;;8.02;;
34673;SDS011;20879;55.668;37.858;2023-09-18T02:00:29;12.40;;;7.80;;
34673;SDS011;20879;55.668;37.858;2023-09-18T02:03:01;13.82;;;8.07;;
34673;SDS011;20879;55.668;37.858;2023-09-18T02:05:55;15.20;;;7.88;;
34673;SDS011;20879;55.668;37.858;2023-09-18T02:08:27;12.18;;;8.30;;
34673;SDS011;20879;55.668;37.858;2023-09-18T02:10:59;13.82;;;8.43;;
34673;SDS011;20879;55.668;37.858;2023-09-18T02:13:35;11.43;;;8.07;;
34673;SDS011;20879;55.668;37.858;2023-09-18T02:16:19;12.98;;;8.35;;
34673;SDS011;20879;55.668;37.858;2023-09-18T02:18:57;11.55;;;8.13;;
34673;SDS011;20879;55.668;37.858;2023-09-18T02:21:27;10.40;;;7.75;;
34673;SDS011;20879;55.668;37.858;2023-09-18T02:23:59;15.57;;;7.78;;
34673;SDS011;20879;55.668;37.858;2023-09-18T02:26:33;11.75;;;7.40;;
34673;SDS011;20879;55.668;37.858;2023-09-18T02:29:05;10.60;;;7.75;;
34673;SDS011;20879;55.668;37.858;2023-09-18T02:31:47;14.18;;;7.85;;
34673;SDS011;20879;55.668;37.858;2023-09-18T02:34:17;14.48;;;8.70;;
34673;SDS011;20879;55.668;37.858;2023-09-18T02:36:55;14.07;;;8.50;;
34673;SDS011;20879;55.668;37.858;2023-09-18T02:39:25;13.93;;;8.45;;
34673;SDS011;20879;55.668;37.858;2023-09-18T02:41:59;16.25;;;8.80;;
34673;SDS011;20879;55.668;37.858;2023-09-18T02:44:30;16.77;;;8.98;;
34673;SDS011;20879;55.668;37.858;2023-09-18T02:47:02;11.85;;;7.65;;
34673;SDS011;20879;55.668;37.858;2023-09-18T02:49:34;12.57;;;7.43;;
34673;SDS011;20879;55.668;37.858;2023-09-18T02:52:06;11.85;;;8.10;;
34673;SDS011;20879;55.668;37.858;2023-09-18T02:54:38;10.48;;;7.03;;
34673;SDS011;20879;55.668;37.858;2023-09-18T02:57:12;12.23;;;7.47;;
34673;SDS011;20879;55.668;37.858;2023-09-18T02:59:45;11.55;;;7.63;;
34673;SDS011;20879;55.668;37.858;2023-09-18T03:02:14;12.35;;;7.35;;
34673;SDS011;20879;55.668;37.858;2023-09-18T03:04:46;11.40;;;7.30;;
34673;SDS011;20879;55.668;37.858;2023-09-18T03:07:19;14.02;;;8.07;;
34673;SDS011;20879;55.668;37.858;2023-09-18T03:09:52;11.40;;;7.20;;
34673;SDS011;20879;55.668;37.858;2023-09-18T03:12:34;12.32;;;7.47;;
34673;SDS011;20879;55.668;37.858;2023-09-18T03:15:05;12.65;;;7.57;;
34673;SDS011;20879;55.668;37.858;2023-09-18T03:17:38;11.68;;;7.65;;
34673;SDS011;20879;55.668;37.858;2023-09-18T03:20:15;14.98;;;7.68;;
34673;SDS011;20879;55.668;37.858;2023-09-18T03:22:45;14.07;;;7.47;;
34673;SDS011;20879;55.668;37.858;2023-09-18T03:25:15;11.53;;;7.67;;
34673;SDS011;20879;55.668;37.858;2023-09-18T03:27:50;14.90;;;8.18;;
34673;SDS011;20879;55.668;37.858;2023-09-18T03:30:34;12.85;;;7.03;;
34673;SDS011;20879;55.668;37.858;2023-09-18T03:33:13;13.00;;;6.95;;
34673;SDS011;20879;55.668;37.858;2023-09-18T03:35:46;14.30;;;7.20;;
34673;SDS011;20879;55.668;37.858;2023-09-18T03:38:30;9.57;;;6.03;;
34673;SDS011;20879;55.668;37.858;2023-09-18T03:41:03;12.93;;;6.70;;
34673;SDS011;20879;55.668;37.858;2023-09-18T03:43:47;9.20;;;6.10;;
34673;SDS011;20879;55.668;37.858;2023-09-18T03:46:17;10.27;;;5.60;;
34673;SDS011;20879;55.668;37.858;2023-09-18T03:48:49;11.13;;;6.32;;
34673;SDS011;20879;55.668;37.858;2023-09-18T03:51:22;10.98;;;6.43;;
34673;SDS011;20879;55.668;37.858;2023-09-18T03:53:52;7.70;;;5.72;;
34673;SDS011;20879;55.668;37.858;2023-09-18T03:56:27;8.10;;;5.57;;
34673;SDS011;20879;55.668;37.858;2023-09-18T03:59:01;7.70;;;5.47;;
34673;SDS011;20879;55.668;37.858;2023-09-18T04:01:36;11.35;;;6.00;;
34673;SDS011;20879;55.668;37.858;2023-09-18T04:04:10;8.48;;;5.75;;
34673;SDS011;20879;55.668;37.858;2023-09-18T04:06:40;10.88;;;5.80;;
34673;SDS011;20879;55.668;37.858;2023-09-18T04:09:17;8.00;;;5.60;;
34673;SDS011;20879;55.668;37.858;2023-09-18T04:11:56;8.18;;;5.70;;
34673;SDS011;20879;55.668;37.858;2023-09-18T04:14:34;8.02;;;5.50;;
34673;SDS011;20879;55.668;37.858;2023-09-18T04:17:07;9.02;;;5.43;;
34673;SDS011;20879;55.668;37.858;2023-09-18T04:19:37;7.85;;;5.30;;
34673;SDS011;20879;55.668;37.858;2023-09-18T04:22:12;6.72;;;4.90;;
34673;SDS011;20879;55.668;37.858;2023-09-18T04:24:44;7.00;;;5.60;;
34673;SDS011;20879;55.668;37.858;2023-09-18T04:27:16;10.65;;;5.20;;
34673;SDS011;20879;55.668;37.858;2023-09-18T04:29:47;7.88;;;5.50;;
34673;SDS011;20879;55.668;37.858;2023-09-18T04:32:23;7.22;;;5.60;;
34673;SDS011;20879;55.668;37.858;2023-09-18T04:34:53;6.82;;;5.50;;
34673;SDS011;20879;55.668;37.858;2023-09-18T04:37:22;8.45;;;5.75;;
34673;SDS011;20879;55.668;37.858;2023-09-18T04:39:52;7.03;;;5.35;;
34673;SDS011;20879;55.668;37.858;2023-09-18T04:42:26;9.00;;;6.63;;
34673;SDS011;20879;55.668;37.858;2023-09-18T04:45:04;8.63;;;6.28;;
34673;SDS011;20879;55.668;37.858;2023-09-18T04:47:38;8.93;;;5.53;;
34673;SDS011;20879;55.668;37.858;2023-09-18T04:50:13;7.22;;;5.35;;
34673;SDS011;20879;55.668;37.858;2023-09-18T04:52:45;8.63;;;5.55;;
34673;SDS011;20879;55.668;37.858;2023-09-18T04:55:19;7.85;;;5.63;;
34673;SDS011;20879;55.668;37.858;2023-09-18T04:57:51;8.10;;;5.25;;
34673;SDS011;20879;55.668;37.858;2023-09-18T05:00:26;13.43;;;5.78;;
34673;SDS011;20879;55.668;37.858;2023-09-18T05:02:57;8.10;;;5.50;;
34673;SDS011;20879;55.668;37.858;2023-09-18T05:05:30;8.85;;;5.93;;
34673;SDS011;20879;55.668;37.858;2023-09-18T05:08:11;8.43;;;5.72;;
34673;SDS011;20879;55.668;37.858;2023-09-18T05:10:41;7.15;;;5.57;;
34673;SDS011;20879;55.668;37.858;2023-09-18T05:13:19;9.15;;;6.20;;
34673;SDS011;20879;55.668;37.858;2023-09-18T05:15:53;10.38;;;5.43;;
34673;SDS011;20879;55.668;37.858;2023-09-18T05:18:35;10.20;;;5.80;;
34673;SDS011;20879;55.668;37.858;2023-09-18T05:21:05;8.27;;;5.88;;
34673;SDS011;20879;55.668;37.858;2023-09-18T05:23:40;8.60;;;5.72;;
34673;SDS011;20879;55.668;37.858;2023-09-18T05:26:11;7.55;;;5.05;;
34673;SDS011;20879;55.668;37.858;2023-09-18T05:28:43;11.93;;;5.45;;
34673;SDS011;20879;55.668;37.858;2023-09-18T05:31:14;10.40;;;5.72;;
34673;SDS011;20879;55.668;37.858;2023-09-18T05:33:44;8.68;;;5.28;;
34673;SDS011;20879;55.668;37.858;2023-09-18T05:36:15;9.48;;;5.88;;
34673;SDS011;20879;55.668;37.858;2023-09-18T05:38:54;8.88;;;5.53;;
34673;SDS011;20879;55.668;37.858;2023-09-18T05:41:26;11.30;;;6.13;;
34673;SDS011;20879;55.668;37.858;2023-09-18T05:43:57;10.10;;;5.57;;
34673;SDS011;20879;55.668;37.858;2023-09-18T05:46:33;9.68;;;5.57;;
34673;SDS011;20879;55.668;37.858;2023-09-18T05:49:04;7.53;;;5.13;;
34673;SDS011;20879;55.668;37.858;2023-09-18T05:54:04;7.85;;;5.18;;
34673;SDS011;20879;55.668;37.858;2023-09-18T05:56:45;9.13;;;5.85;;
34673;SDS011;20879;55.668;37.858;2023-09-18T05:59:17;9.32;;;5.65;;
34673;SDS011;20879;55.668;37.858;2023-09-18T06:01:57;10.32;;;5.55;;
34673;SDS011;20879;55.668;37.858;2023-09-18T06:04:27;14.75;;;6.18;;
34673;SDS011;20879;55.668;37.858;2023-09-18T06:06:58;9.25;;;5.82;;
34673;SDS011;20879;55.668;37.858;2023-09-18T06:09:29;10.75;;;5.72;;
34673;SDS011;20879;55.668;37.858;2023-09-18T06:11:59;12.40;;;6.35;;
34673;SDS011;20879;55.668;37.858;2023-09-18T06:14:34;6.45;;;4.20;;
34673;SDS011;20879;55.668;37.858;2023-09-18T06:17:07;6.40;;;4.70;;
34673;SDS011;20879;55.668;37.858;2023-09-18T06:19:40;8.90;;;4.95;;
34673;SDS011;20879;55.668;37.858;2023-09-18T06:22:13;13.23;;;6.00;;
34673;SDS011;20879;55.668;37.858;2023-09-18T06:24:46;7.13;;;5.07;;
34673;SDS011;20879;55.668;37.858;2023-09-18T06:27:19;7.30;;;5.68;;
34673;SDS011;20879;55.668;37.858;2023-09-18T06:30:01;8.98;;;5.47;;
34673;SDS011;20879;55.668;37.858;2023-09-18T06:32:34;6.55;;;5.22;;
34673;SDS011;20879;55.668;37.858;2023-09-18T06:35:07;6.90;;;3.88;;
34673;SDS011;20879;55.668;37.858;2023-09-18T06:37:43;6.35;;;4.85;;
34673;SDS011;20879;55.668;37.858;2023-09-18T06:40:20;7.82;;;4.38;;
34673;SDS011;20879;55.668;37.858;2023-09-18T06:42:51;8.70;;;5.50;;
34673;SDS011;20879;55.668;37.858;2023-09-18T06:45:26;9.02;;;5.78;;
34673;SDS011;20879;55.668;37.858;2023-09-18T06:47:58;7.93;;;5.60;;
34673;SDS011;20879;55.668;37.858;2023-09-18T06:50:28;8.25;;;5.75;;
34673;SDS011;20879;55.668;37.858;2023-09-18T06:53:01;9.32;;;5.50;;
34673;SDS011;20879;55.668;37.858;2023-09-18T06:55:38;9.07;;;5.75;;
34673;SDS011;20879;55.668;37.858;2023-09-18T06:58:17;8.05;;;4.93;;
34673;SDS011;20879;55.668;37.858;2023-09-18T07:00:47;9.88;;;5.85;;
34673;SDS011;20879;55.668;37.858;2023-09-18T07:03:30;6.65;;;5.38;;
34673;SDS011;20879;55.668;37.858;2023-09-18T07:06:02;10.45;;;6.15;;
34673;SDS011;20879;55.668;37.858;2023-09-18T07:08:33;10.73;;;5.87;;
34673;SDS011;20879;55.668;37.858;2023-09-18T07:11:03;10.30;;;5.40;;
34673;SDS011;20879;55.668;37.858;2023-09-18T07:13:39;7.97;;;5.45;;
34673;SDS011;20879;55.668;37.858;2023-09-18T07:16:17;9.57;;;5.30;;
34673;SDS011;20879;55.668;37.858;2023-09-18T07:18:48;9.25;;;5.40;;
34673;SDS011;20879;55.668;37.858;2023-09-18T07:21:20;8.50;;;5.53;;
34673;SDS011;20879;55.668;37.858;2023-09-18T07:23:50;11.32;;;5.95;;
34673;SDS011;20879;55.668;37.858;2023-09-18T07:26:27;10.30;;;5.38;;
34673;SDS011;20879;55.668;37.858;2023-09-18T07:29:04;10.70;;;5.50;;
34673;SDS011;20879;55.668;37.858;2023-09-18T07:31:33;8.38;;;5.50;;
34673;SDS011;20879;55.668;37.858;2023-09-18T07:34:07;7.50;;;4.95;;
34673;SDS011;20879;55.668;37.858;2023-09-18T07:36:42;8.75;;;5.28;;
34673;SDS011;20879;55.668;37.858;2023-09-18T07:39:19;7.03;;;5.38;;
34673;SDS011;20879;55.668;37.858;2023-09-18T07:41:48;11.85;;;6.20;;
34673;SDS011;20879;55.668;37.858;2023-09-18T07:44:29;9.18;;;5.55;;
34673;SDS011;20879;55.668;37.858;2023-09-18T07:47:11;14.40;;;5.90;;
34673;SDS011;20879;55.668;37.858;2023-09-18T07:49:43;10.55;;;5.93;;
34673;SDS011;20879;55.668;37.858;2023-09-18T07:52:14;8.30;;;5.82;;
34673;SDS011;20879;55.668;37.858;2023-09-18T07:54:49;8.98;;;5.93;;
34673;SDS011;20879;55.668;37.858;2023-09-18T07:57:20;10.98;;;6.32;;
34673;SDS011;20879;55.668;37.858;2023-09-18T07:59:50;8.25;;;5.13;;
34673;SDS011;20879;55.668;37.858;2023-09-18T08:02:26;8.70;;;5.35;;
34673;SDS011;20879;55.668;37.858;2023-09-18T08:05:04;14.13;;;6.10;;
34673;SDS011;20879;55.668;37.858;2023-09-18T08:07:35;12.60;;;6.20;;
34673;SDS011;20879;55.668;37.858;2023-09-18T08:10:08;8.25;;;6.18;;
34673;SDS011;20879;55.668;37.858;2023-09-18T08:12:46;8.93;;;6.20;;
34673;SDS011;20879;55.668;37.858;2023-09-18T08:15:24;7.55;;;5.50;;
34673;SDS011;20879;55.668;37.858;2023-09-18T08:17:59;10.32;;;5.45;;
34673;SDS011;20879;55.668;37.858;2023-09-18T08:20:31;12.55;;;7.13;;
34673;SDS011;20879;55.668;37.858;2023-09-18T08:23:03;12.02;;;6.75;;
34673;SDS011;20879;55.668;37.858;2023-09-18T08:25:33;10.65;;;5.93;;
34673;SDS011;20879;55.668;37.858;2023-09-18T08:28:07;10.80;;;6.75;;
34673;SDS011;20879;55.668;37.858;2023-09-18T08:30:37;10.45;;;6.32;;
34673;SDS011;20879;55.668;37.858;2023-09-18T08:33:13;9.15;;;6.50;;
34673;SDS011;20879;55.668;37.858;2023-09-18T08:35:48;10.90;;;5.97;;
34673;SDS011;20879;55.668;37.858;2023-09-18T08:38:23;11.73;;;6.25;;
34673;SDS011;20879;55.668;37.858;2023-09-18T08:41:01;9.52;;;6.38;;
34673;SDS011;20879;55.668;37.858;2023-09-18T08:43:32;10.95;;;6.45;;
34673;SDS011;20879;55.668;37.858;2023-09-18T08:46:04;11.45;;;6.25;;
34673;SDS011;20879;55.668;37.858;2023-09-18T08:48:34;9.50;;;6.88;;
34673;SDS011;20879;55.668;37.858;2023-09-18T08:51:12;12.38;;;6.07;;
34673;SDS011;20879;55.668;37.858;2023-09-18T08:53:46;9.02;;;6.25;;
34673;SDS011;20879;55.668;37.858;2023-09-18T08:56:24;10.48;;;6.93;;
34673;SDS011;20879;55.668;37.858;2023-09-18T08:58:57;10.77;;;5.93;;
34673;SDS011;20879;55.668;37.858;2023-09-18T09:01:28;8.60;;;6.25;;
34673;SDS011;20879;55.668;37.858;2023-09-18T09:04:07;11.80;;;6.88;;
34673;SDS011;20879;55.668;37.858;2023-09-18T09:06:51;10.90;;;6.70;;
34673;SDS011;20879;55.668;37.858;2023-09-18T09:09:24;14.10;;;6.78;;
34673;SDS011;20879;55.668;37.858;2023-09-18T09:11:56;7.20;;;5.95;;
34673;SDS011;20879;55.668;37.858;2023-09-18T09:14:26;13.88;;;6.90;;
34673;SDS011;20879;55.668;37.858;2023-09-18T09:16:56;11.45;;;6.15;;
34673;SDS011;20879;55.668;37.858;2023-09-18T09:19:30;10.35;;;6.30;;
34673;SDS011;20879;55.668;37.858;2023-09-18T09:22:07;10.30;;;6.78;;
34673;SDS011;20879;55.668;37.858;2023-09-18T09:24:50;9.85;;;6.18;;
34673;SDS011;20879;55.668;37.858;2023-09-18T09:27:23;12.50;;;6.45;;
34673;SDS011;20879;55.668;37.858;2023-09-18T09:30:02;12.05;;;6.60;;
34673;SDS011;20879;55.668;37.858;2023-09-18T09:32:39;13.52;;;7.25;;
34673;SDS011;20879;55.668;37.858;2023-09-18T09:35:11;10.60;;;5.95;;
34673;SDS011;20879;55.668;37.858;2023-09-18T09:37:58;16.55;;;6.65;;
34673;SDS011;20879;55.668;37.858;2023-09-18T09:40:38;10.10;;;6.43;;
34673;SDS011;20879;55.668;37.858;2023-09-18T09:43:16;11.27;;;6.47;;
34673;SDS011;20879;55.668;37.858;2023-09-18T09:45:47;10.95;;;6.28;;
34673;SDS011;20879;55.668;37.858;2023-09-18T09:48:29;8.50;;;6.32;;
34673;SDS011;20879;55.668;37.858;2023-09-18T09:51:03;12.48;;;6.53;;
34673;SDS011;20879;55.668;37.858;2023-09-18T09:53:44;10.68;;;5.78;;
34673;SDS011;20879;55.668;37.858;2023-09-18T09:56:23;9.88;;;6.15;;
34673;SDS011;20879;55.668;37.858;2023-09-18T09:59:13;11.38;;;6.60;;
34673;SDS011;20879;55.668;37.858;2023-09-18T10:01:50;10.38;;;6.85;;
34673;SDS011;20879;55.668;37.858;2023-09-18T10:04:21;11.07;;;6.63;;
34673;SDS011;20879;55.668;37.858;2023-09-18T10:06:58;10.20;;;6.53;;
34673;SDS011;20879;55.668;37.858;2023-09-18T10:09:39;12.65;;;7.25;;
34673;SDS011;20879;55.668;37.858;2023-09-18T10:12:12;10.10;;;6.65;;
34673;SDS011;20879;55.668;37.858;2023-09-18T10:14:53;10.75;;;6.80;;
34673;SDS011;20879;55.668;37.858;2023-09-18T10:17:32;10.40;;;6.75;;
34673;SDS011;20879;55.668;37.858;2023-09-18T10:20:16;10.98;;;6.80;;
34673;SDS011;20879;55.668;37.858;2023-09-18T10:22:49;11.48;;;6.50;;
34673;SDS011;20879;55.668;37.858;2023-09-18T10:25:27;11.40;;;6.03;;
34673;SDS011;20879;55.668;37.858;2023-09-18T10:28:05;11.60;;;6.90;;
34673;SDS011;20879;55.668;37.858;2023-09-18T10:30:39;10.43;;;6.72;;
34673;SDS011;20879;55.668;37.858;2023-09-18T10:33:22;12.40;;;6.70;;
34673;SDS011;20879;55.668;37.858;2023-09-18T10:36:05;14.85;;;7.03;;
34673;SDS011;20879;55.668;37.858;2023-09-18T10:38:38;12.82;;;7.10;;
34673;SDS011;20879;55.668;37.858;2023-09-18T10:43:53;12.48;;;7.03;;
34673;SDS011;20879;55.668;37.858;2023-09-18T10:46:31;14.20;;;7.50;;
34673;SDS011;20879;55.668;37.858;2023-09-18T10:49:03;16.27;;;7.03;;
34673;SDS011;20879;55.668;37.858;2023-09-18T10:51:43;13.07;;;6.72;;
34673;SDS011;20879;55.668;37.858;2023-09-18T10:54:16;11.05;;;7.30;;
34673;SDS011;20879;55.668;37.858;2023-09-18T10:56:58;11.65;;;6.80;;
34673;SDS011;20879;55.668;37.858;2023-09-18T10:59:29;10.02;;;6.88;;
34673;SDS011;20879;55.668;37.858;2023-09-18T11:02:07;11.52;;;6.97;;
34673;SDS011;20879;55.668;37.858;2023-09-18T11:04:50;9.70;;;6.75;;
34673;SDS011;20879;55.668;37.858;2023-09-18T11:07:29;10.90;;;7.28;;
34673;SDS011;20879;55.668;37.858;2023-09-18T11:13:09;12.90;;;7.78;;
34673;SDS011;20879;55.668;37.858;2023-09-18T11:15:42;11.98;;;6.78;;
34673;SDS011;20879;55.668;37.858;2023-09-18T11:18:15;10.98;;;6.45;;
34673;SDS011;20879;55.668;37.858;2023-09-18T11:21:06;10.25;;;7.18;;
34673;SDS011;20879;55.668;37.858;2023-09-18T11:23:40;13.15;;;7.45;;
34673;SDS011;20879;55.668;37.858;2023-09-18T11:26:14;11.50;;;6.55;;
34673;SDS011;20879;55.668;37.858;2023-09-18T11:28:47;13.43;;;6.30;;
34673;SDS011;20879;55.668;37.858;2023-09-18T11:34:12;8.35;;;6.50;;
34673;SDS011;20879;55.668;37.858;2023-09-18T11:37:18;9.57;;;7.10;;
34673;SDS011;20879;55.668;37.858;2023-09-18T11:39:58;9.05;;;7.15;;
34673;SDS011;20879;55.668;37.858;2023-09-18T11:42:29;10.10;;;7.18;;
34673;SDS011;20879;55.668;37.858;2023-09-18T11:45:18;9.63;;;6.90;;
34673;SDS011;20879;55.668;37.858;2023-09-18T11:47:58;9.20;;;7.13;;
34673;SDS011;20879;55.668;37.858;2023-09-18T11:50:30;13.38;;;7.15;;
34673;SDS011;20879;55.668;37.858;2023-09-18T11:53:03;12.68;;;6.97;;
34673;SDS011;20879;55.668;37.858;2023-09-18T11:55:40;10.05;;;6.85;;
34673;SDS011;20879;55.668;37.858;2023-09-18T11:58:19;6.97;;;5.38;;
34673;SDS011;20879;55.668;37.858;2023-09-18T12:00:53;6.10;;;4.30;;
34673;SDS011;20879;55.668;37.858;2023-09-18T12:03:31;8.32;;;5.55;;
34673;SDS011;20879;55.668;37.858;2023-09-18T12:06:08;8.38;;;5.43;;
34673;SDS011;20879;55.668;37.858;2023-09-18T12:08:44;9.48;;;5.47;;
34673;SDS011;20879;55.668;37.858;2023-09-18T12:11:21;8.50;;;5.32;;
34673;SDS011;20879;55.668;37.858;2023-09-18T12:13:59;8.75;;;5.18;;
34673;SDS011;20879;55.668;37.858;2023-09-18T12:16:39;7.57;;;5.50;;
34673;SDS011;20879;55.668;37.858;2023-09-18T12:19:18;8.77;;;5.03;;
34673;SDS011;20879;55.668;37.858;2023-09-18T12:21:52;5.88;;;4.50;;
34673;SDS011;20879;55.668;37.858;2023-09-18T12:24:31;5.72;;;4.57;;
34673;SDS011;20879;55.668;37.858;2023-09-18T12:27:03;7.85;;;4.57;;
34673;SDS011;20879;55.668;37.858;2023-09-18T12:29:37;6.78;;;4.45;;
34673;SDS011;20879;55.668;37.858;2023-09-18T12:32:32;6.43;;;4.10;;
34673;SDS011;20879;55.668;37.858;2023-09-18T12:35:18;6.93;;;4.88;;
34673;SDS011;20879;55.668;37.858;2023-09-18T12:37:53;6.70;;;5.15;;
34673;SDS011;20879;55.668;37.858;2023-09-18T12:40:30;8.75;;;5.45;;
34673;SDS011;20879;55.668;37.858;2023-09-18T12:49:17;11.10;;;5.47;;
34673;SDS011;20879;55.668;37.858;2023-09-18T12:51:59;9.15;;;4.60;;
34673;SDS011;20879;55.668;37.858;2023-09-18T12:54:39;7.63;;;5.70;;
34673;SDS011;20879;55.668;37.858;2023-09-18T12:57:15;9.13;;;6.13;;
34673;SDS011;20879;55.668;37.858;2023-09-18T12:59:48;9.40;;;5.70;;
34673;SDS011;20879;55.668;37.858;2023-09-18T13:02:34;8.98;;;5.82;;
34673;SDS011;20879;55.668;37.858;2023-09-18T13:05:17;9.88;;;5.82;;
34673;SDS011;20879;55.668;37.858;2023-09-18T13:07:54;9.23;;;5.90;;
34673;SDS011;20879;55.668;37.858;2023-09-18T13:10:24;7.38;;;5.80;;
34673;SDS011;20879;55.668;37.858;2023-09-18T13:13:12;9.50;;;5.80;;
34673;SDS011;20879;55.668;37.858;2023-09-18T13:15:48;11.65;;;6.85;;
34673;SDS011;20879;55.668;37.858;2023-09-18T13:18:23;8.63;;;5.97;;
34673;SDS011;20879;55.668;37.858;2023-09-18T13:21:10;9.02;;;6.22;;
34673;SDS011;20879;55.668;37.858;2023-09-18T13:23:49;9.43;;;6.20;;
34673;SDS011;20879;55.668;37.858;2023-09-18T13:26:31;12.25;;;7.40;;
34673;SDS011;20879;55.668;37.858;2023-09-18T13:29:07;9.25;;;7.30;;
34673;SDS011;20879;55.668;37.858;2023-09-18T13:31:39;15.57;;;7.90;;
34673;SDS011;20879;55.668;37.858;2023-09-18T13:34:12;11.93;;;8.25;;
34673;SDS011;20879;55.668;37.858;2023-09-18T13:36:52;13.30;;;8.30;;
34673;SDS011;20879;55.668;37.858;2023-09-18T13:39:25;10.98;;;7.88;;
34673;SDS011;20879;55.668;37.858;2023-09-18T13:41:55;11.88;;;8.52;;
34673;SDS011;20879;55.668;37.858;2023-09-18T13:44:29;11.35;;;8.30;;
34673;SDS011;20879;55.668;37.858;2023-09-18T13:47:00;12.63;;;8.20;;
34673;SDS011;20879;55.668;37.858;2023-09-18T13:49:31;14.60;;;8.77;;
34673;SDS011;20879;55.668;37.858;2023-09-18T13:52:08;16.90;;;8.30;;
34673;SDS011;20879;55.668;37.858;2023-09-18T13:54:38;12.73;;;8.70;;
34673;SDS011;20879;55.668;37.858;2023-09-18T13:57:20;12.98;;;7.72;;
34673;SDS011;20879;55.668;37.858;2023-09-18T13:59:56;11.98;;;8.57;;
34673;SDS011;20879;55.668;37.858;2023-09-18T14:02:39;14.93;;;8.90;;
34673;SDS011;20879;55.668;37.858;2023-09-18T14:05:15;11.82;;;8.65;;
34673;SDS011;20879;55.668;37.858;2023-09-18T14:07:53;16.13;;;8.45;;
34673;SDS011;20879;55.668;37.858;2023-09-18T14:10:36;11.27;;;7.75;;
34673;SDS011;20879;55.668;37.858;2023-09-18T14:13:10;11.40;;;7.68;;
34673;SDS011;20879;55.668;37.858;2023-09-18T14:15:46;10.30;;;7.40;;
34673;SDS011;20879;55.668;37.858;2023-09-18T14:18:18;13.10;;;7.68;;
34673;SDS011;20879;55.668;37.858;2023-09-18T14:20:54;11.07;;;7.82;;
34673;SDS011;20879;55.668;37.858;2023-09-18T14:23:35;16.13;;;7.20;;
34673;SDS011;20879;55.668;37.858;2023-09-18T14:26:13;12.77;;;7.25;;
34673;SDS011;20879;55.668;37.858;2023-09-18T14:28:53;10.65;;;7.40;;
34673;SDS011;20879;55.668;37.858;2023-09-18T14:31:29;8.90;;;6.50;;
34673;SDS011;20879;55.668;37.858;2023-09-18T14:34:17;13.60;;;6.97;;
34673;SDS011;20879;55.668;37.858;2023-09-18T14:36:47;11.95;;;6.45;;
34673;SDS011;20879;55.668;37.858;2023-09-18T14:39:20;8.85;;;6.35;;
34673;SDS011;20879;55.668;37.858;2023-09-18T14:41:56;9.93;;;7.15;;
34673;SDS011;20879;55.668;37.858;2023-09-18T14:44:26;11.05;;;6.82;;
34673;SDS011;20879;55.668;37.858;2023-09-18T14:47:02;10.00;;;6.07;;
34673;SDS011;20879;55.668;37.858;2023-09-18T14:49:33;9.98;;;6.38;;
34673;SDS011;20879;55.668;37.858;2023-09-18T14:52:09;13.00;;;6.90;;
34673;SDS011;20879;55.668;37.858;2023-09-18T14:54:41;7.70;;;6.22;;
34673;SDS011;20879;55.668;37.858;2023-09-18T14:59:41;10.07;;;6.00;;
34673;SDS011;20879;55.668;37.858;2023-09-18T15:02:14;8.10;;;6.25;;
34673;SDS011;20879;55.668;37.858;2023-09-18T15:04:51;8.27;;;6.03;;
34673;SDS011;20879;55.668;37.858;2023-09-18T15:07:32;13.50;;;6.60;;
34673;SDS011;20879;55.668;37.858;2023-09-18T15:10:08;10.07;;;6.28;;
34673;SDS011;20879;55.668;37.858;2023-09-18T15:12:39;9.05;;;6.20;;
34673;SDS011;20879;55.668;37.858;2023-09-18T15:15:10;9.53;;;6.20;;
34673;SDS011;20879;55.668;37.858;2023-09-18T15:17:42;7.60;;;5.82;;
34673;SDS011;20879;55.668;37.858;2023-09-18T15:20:18;8.02;;;6.10;;
34673;SDS011;20879;55.668;37.858;2023-09-18T15:22:54;10.77;;;6.03;;
34673;SDS011;20879;55.668;37.858;2023-09-18T15:25:26;9.75;;;6.57;;
34673;SDS011;20879;55.668;37.858;2023-09-18T15:28:04;12.13;;;5.72;;
34673;SDS011;20879;55.668;37.858;2023-09-18T15:30:43;10.35;;;5.85;;
34673;SDS011;20879;55.668;37.858;2023-09-18T15:33:15;7.75;;;5.50;;
34673;SDS011;20879;55.668;37.858;2023-09-18T15:35:45;10.60;;;5.63;;
34673;SDS011;20879;55.668;37.858;2023-09-18T15:38:21;8.95;;;5.95;;
34673;SDS011;20879;55.668;37.858;2023-09-18T15:40:58;6.03;;;5.43;;